Aviation Digital Data Service (ADDS)

Output produced by METARs form (0306 UTC 16 August 2018)
found at http://www.aviationweather.gov/adds/metars/
 
LUKK 160300Z 00000KT CAVOK 16/14 Q1014 R08/D NOSIG
TAF LUKK 152320Z 1600/1624 VRB04KT CAVOK
       
LUKK 160300Z 00000KT CAVOK 16/14 Q1014 R08/D NOSIG
TAF LUKK 152320Z 1600/1624 VRB04KT CAVOK